Terminal Aerodrome Forecast
Issued by NWS

Current Version | Previous Version | Text Only | Print | Product List | Glossary On
Versions: 1 2 3 4 5 6 7 8 9 10 11 12 13 14 15 16 17 18
000
FTUS44 KBMX 251120
TAFANB
TAF
KANB 251120Z 2512/2612 02004KT P6SM BKN150
     FM251600 34010KT P6SM BKN150
     FM260100 03003KT P6SM SCT150=

USA.gov is the U.S. government's official web portal to all federal, state and local government web resources and services.